Current Conditions
Partly Cloudy
Conditions



Pressure
1005.92 (hPa) - 29.7 (inHG)
Visibility

10.0 (km) - 6.2 (miles)
Temperature
31  °C
Temperature
26  °C
Dewpoint
75  %
 Humidity
Wind Speed
19  km/h
10  kts
12  mph
5.4  m/s
Wind Direction
N
45°
E
90°
135°
S
180°
225°
W
270°
315°
 250°

West South
West
Airport Data
RPLL
Ninoy Aquino International Airport
Metar :RPLL 261000Z 25010KT 9999 FEW022CB SCT023 BKN090 31/26 Q1006 NOSIG RMK A2971 CB E
Thu 26th May 18:00 pm
Raw Metar Info
Raw METAR is the most common format in the world for the transmission of observational weather data. It is highly standardized through the International Civil Aviation Organization (ICAO), which allows it to be understood throughout most of the world.
API Info
Data Provided by
https://www.checkwx.com/weather/RPLL

Aviation Weather providing METAR, TAF, AIRMET, SIGMET and OUTLOOK Weather Reports
© Info
CSS/SVG/PHP scripts were developed by weather34.com for use in the weather34 template © 2015-2022

Guide Info provided by Metar-Wikipedia